sensor_id;sensor_type;location;lat;lon;timestamp;temperature;humidity
71117;SHT31;58775;46.992;9.518;2023-03-14T00:00:12;13.16;64.45
71117;SHT31;58775;46.992;9.518;2023-03-14T00:02:13;13.07;66.29
71117;SHT31;58775;46.992;9.518;2023-03-14T00:04:14;13.12;66.42
71117;SHT31;58775;46.992;9.518;2023-03-14T00:06:16;12.90;70.29
71117;SHT31;58775;46.992;9.518;2023-03-14T00:08:18;12.83;72.27
71117;SHT31;58775;46.992;9.518;2023-03-14T00:10:20;12.76;74.42
71117;SHT31;58775;46.992;9.518;2023-03-14T00:12:22;12.61;74.43
71117;SHT31;58775;46.992;9.518;2023-03-14T00:14:23;12.61;74.79
71117;SHT31;58775;46.992;9.518;2023-03-14T00:16:25;12.43;75.84
71117;SHT31;58775;46.992;9.518;2023-03-14T00:18:27;12.10;79.37
71117;SHT31;58775;46.992;9.518;2023-03-14T00:20:28;12.13;76.87
71117;SHT31;58775;46.992;9.518;2023-03-14T00:22:30;11.74;83.81
71117;SHT31;58775;46.992;9.518;2023-03-14T00:24:32;11.77;80.41
71117;SHT31;58775;46.992;9.518;2023-03-14T00:26:33;11.64;84.60
71117;SHT31;58775;46.992;9.518;2023-03-14T00:28:35;11.58;85.02
71117;SHT31;58775;46.992;9.518;2023-03-14T00:30:37;11.34;86.08
71117;SHT31;58775;46.992;9.518;2023-03-14T00:32:38;11.20;86.90
71117;SHT31;58775;46.992;9.518;2023-03-14T00:34:39;10.93;88.38
71117;SHT31;58775;46.992;9.518;2023-03-14T00:36:40;10.73;89.52
71117;SHT31;58775;46.992;9.518;2023-03-14T00:39:09;10.90;88.26
71117;SHT31;58775;46.992;9.518;2023-03-14T00:41:16;10.59;90.23
71117;SHT31;58775;46.992;9.518;2023-03-14T00:43:19;10.49;90.55
71117;SHT31;58775;46.992;9.518;2023-03-14T00:45:22;10.38;91.07
71117;SHT31;58775;46.992;9.518;2023-03-14T00:47:23;10.38;90.96
71117;SHT31;58775;46.992;9.518;2023-03-14T00:49:26;10.36;91.13
71117;SHT31;58775;46.992;9.518;2023-03-14T00:51:27;10.24;91.84
71117;SHT31;58775;46.992;9.518;2023-03-14T00:53:30;10.48;90.37
71117;SHT31;58775;46.992;9.518;2023-03-14T00:55:31;10.29;91.70
71117;SHT31;58775;46.992;9.518;2023-03-14T00:57:32;10.26;91.43
71117;SHT31;58775;46.992;9.518;2023-03-14T00:59:33;10.39;90.78
71117;SHT31;58775;46.992;9.518;2023-03-14T01:01:35;10.15;92.12
71117;SHT31;58775;46.992;9.518;2023-03-14T01:03:36;10.14;91.29
71117;SHT31;58775;46.992;9.518;2023-03-14T01:05:38;10.21;89.49
71117;SHT31;58775;46.992;9.518;2023-03-14T01:07:39;10.39;85.50
71117;SHT31;58775;46.992;9.518;2023-03-14T01:09:40;10.44;84.78
71117;SHT31;58775;46.992;9.518;2023-03-14T01:11:43;10.38;85.52
71117;SHT31;58775;46.992;9.518;2023-03-14T01:13:47;10.56;84.62
71117;SHT31;58775;46.992;9.518;2023-03-14T01:15:49;10.44;83.86
71117;SHT31;58775;46.992;9.518;2023-03-14T01:17:50;10.48;84.14
71117;SHT31;58775;46.992;9.518;2023-03-14T01:19:51;10.41;83.14
71117;SHT31;58775;46.992;9.518;2023-03-14T01:21:52;10.25;82.37
71117;SHT31;58775;46.992;9.518;2023-03-14T01:23:55;10.28;81.04
71117;SHT31;58775;46.992;9.518;2023-03-14T01:25:56;10.24;83.16
71117;SHT31;58775;46.992;9.518;2023-03-14T01:27:58;10.32;80.71
71117;SHT31;58775;46.992;9.518;2023-03-14T01:30:03;10.31;82.76
71117;SHT31;58775;46.992;9.518;2023-03-14T01:32:06;10.46;83.45
71117;SHT31;58775;46.992;9.518;2023-03-14T01:34:08;10.32;84.66
71117;SHT31;58775;46.992;9.518;2023-03-14T01:36:10;10.32;85.28
71117;SHT31;58775;46.992;9.518;2023-03-14T01:38:11;10.36;85.64
71117;SHT31;58775;46.992;9.518;2023-03-14T01:40:13;10.22;86.59
71117;SHT31;58775;46.992;9.518;2023-03-14T01:42:18;10.15;87.50
71117;SHT31;58775;46.992;9.518;2023-03-14T01:44:19;10.04;87.99
71117;SHT31;58775;46.992;9.518;2023-03-14T01:46:25;9.58;90.44
71117;SHT31;58775;46.992;9.518;2023-03-14T01:48:31;9.70;89.77
71117;SHT31;58775;46.992;9.518;2023-03-14T01:50:33;9.69;90.01
71117;SHT31;58775;46.992;9.518;2023-03-14T01:52:37;9.44;92.15
71117;SHT31;58775;46.992;9.518;2023-03-14T01:54:46;9.43;91.57
71117;SHT31;58775;46.992;9.518;2023-03-14T01:57:00;9.37;91.90
71117;SHT31;58775;46.992;9.518;2023-03-14T01:59:06;9.33;91.42
71117;SHT31;58775;46.992;9.518;2023-03-14T02:01:09;9.37;91.67
71117;SHT31;58775;46.992;9.518;2023-03-14T02:03:14;9.30;92.85
71117;SHT31;58775;46.992;9.518;2023-03-14T02:05:23;9.20;92.36
71117;SHT31;58775;46.992;9.518;2023-03-14T02:07:37;9.29;91.95
71117;SHT31;58775;46.992;9.518;2023-03-14T02:09:50;9.36;90.61
71117;SHT31;58775;46.992;9.518;2023-03-14T02:11:58;9.23;91.52
71117;SHT31;58775;46.992;9.518;2023-03-14T02:14:32;9.29;90.94
71117;SHT31;58775;46.992;9.518;2023-03-14T02:16:50;9.09;93.02
71117;SHT31;58775;46.992;9.518;2023-03-14T02:19:11;8.99;93.09
71117;SHT31;58775;46.992;9.518;2023-03-14T02:21:54;8.69;94.67
71117;SHT31;58775;46.992;9.518;2023-03-14T02:24:13;8.61;95.05
71117;SHT31;58775;46.992;9.518;2023-03-14T02:26:31;8.50;95.89
71117;SHT31;58775;46.992;9.518;2023-03-14T02:28:35;8.44;96.40
71117;SHT31;58775;46.992;9.518;2023-03-14T02:30:37;8.43;96.65
71117;SHT31;58775;46.992;9.518;2023-03-14T02:32:46;8.52;96.45
71117;SHT31;58775;46.992;9.518;2023-03-14T02:34:54;8.60;95.27
71117;SHT31;58775;46.992;9.518;2023-03-14T02:36:57;8.72;94.77
71117;SHT31;58775;46.992;9.518;2023-03-14T02:39:20;8.85;94.00
71117;SHT31;58775;46.992;9.518;2023-03-14T02:41:24;8.85;93.61
71117;SHT31;58775;46.992;9.518;2023-03-14T02:43:33;8.86;93.94
71117;SHT31;58775;46.992;9.518;2023-03-14T02:45:43;8.79;94.14
71117;SHT31;58775;46.992;9.518;2023-03-14T02:47:50;8.68;94.93
71117;SHT31;58775;46.992;9.518;2023-03-14T02:50:01;8.64;95.36
71117;SHT31;58775;46.992;9.518;2023-03-14T02:52:02;8.71;94.73
71117;SHT31;58775;46.992;9.518;2023-03-14T02:54:06;8.84;93.99
71117;SHT31;58775;46.992;9.518;2023-03-14T02:56:08;8.96;93.67
71117;SHT31;58775;46.992;9.518;2023-03-14T02:58:11;9.01;93.14
71117;SHT31;58775;46.992;9.518;2023-03-14T03:00:12;8.98;93.12
71117;SHT31;58775;46.992;9.518;2023-03-14T03:02:13;8.98;93.13
71117;SHT31;58775;46.992;9.518;2023-03-14T03:04:14;8.92;93.53
71117;SHT31;58775;46.992;9.518;2023-03-14T03:06:16;8.93;92.55
71117;SHT31;58775;46.992;9.518;2023-03-14T03:08:18;8.74;93.40
71117;SHT31;58775;46.992;9.518;2023-03-14T03:10:20;8.72;93.31
71117;SHT31;58775;46.992;9.518;2023-03-14T03:12:21;8.75;93.82
71117;SHT31;58775;46.992;9.518;2023-03-14T03:14:23;8.61;93.66
71117;SHT31;58775;46.992;9.518;2023-03-14T03:16:24;8.74;92.17
71117;SHT31;58775;46.992;9.518;2023-03-14T03:18:25;8.57;92.22
71117;SHT31;58775;46.992;9.518;2023-03-14T03:20:26;8.50;91.86
71117;SHT31;58775;46.992;9.518;2023-03-14T03:22:28;8.47;92.19
71117;SHT31;58775;46.992;9.518;2023-03-14T03:24:29;8.40;91.54
71117;SHT31;58775;46.992;9.518;2023-03-14T03:26:30;8.38;91.45
71117;SHT31;58775;46.992;9.518;2023-03-14T03:28:31;8.36;91.84
71117;SHT31;58775;46.992;9.518;2023-03-14T03:30:40;8.31;91.58
71117;SHT31;58775;46.992;9.518;2023-03-14T03:32:42;8.37;90.28
71117;SHT31;58775;46.992;9.518;2023-03-14T03:34:43;8.45;90.01
71117;SHT31;58775;46.992;9.518;2023-03-14T03:36:44;8.47;90.53
71117;SHT31;58775;46.992;9.518;2023-03-14T03:38:46;8.31;91.33
71117;SHT31;58775;46.992;9.518;2023-03-14T03:40:47;8.45;88.10
71117;SHT31;58775;46.992;9.518;2023-03-14T03:42:49;8.47;87.01
71117;SHT31;58775;46.992;9.518;2023-03-14T03:44:51;8.47;85.29
71117;SHT31;58775;46.992;9.518;2023-03-14T03:46:53;8.47;85.57
71117;SHT31;58775;46.992;9.518;2023-03-14T03:48:55;8.38;86.31
71117;SHT31;58775;46.992;9.518;2023-03-14T03:50:57;8.43;84.99
71117;SHT31;58775;46.992;9.518;2023-03-14T03:52:58;8.34;85.48
71117;SHT31;58775;46.992;9.518;2023-03-14T03:55:00;8.33;85.45
71117;SHT31;58775;46.992;9.518;2023-03-14T03:57:02;8.24;85.83
71117;SHT31;58775;46.992;9.518;2023-03-14T03:59:03;8.07;87.62
71117;SHT31;58775;46.992;9.518;2023-03-14T04:01:05;8.13;88.24
71117;SHT31;58775;46.992;9.518;2023-03-14T04:03:07;8.03;87.68
71117;SHT31;58775;46.992;9.518;2023-03-14T04:05:09;7.96;88.93
71117;SHT31;58775;46.992;9.518;2023-03-14T04:07:12;7.89;89.90
71117;SHT31;58775;46.992;9.518;2023-03-14T04:09:15;7.76;89.72
71117;SHT31;58775;46.992;9.518;2023-03-14T04:11:20;7.85;87.66
71117;SHT31;58775;46.992;9.518;2023-03-14T04:13:41;7.69;90.10
71117;SHT31;58775;46.992;9.518;2023-03-14T04:15:43;7.76;88.37
71117;SHT31;58775;46.992;9.518;2023-03-14T04:17:50;7.76;88.64
71117;SHT31;58775;46.992;9.518;2023-03-14T04:19:51;7.83;88.36
71117;SHT31;58775;46.992;9.518;2023-03-14T04:21:56;7.89;86.27
71117;SHT31;58775;46.992;9.518;2023-03-14T04:24:01;7.80;86.43
71117;SHT31;58775;46.992;9.518;2023-03-14T04:26:06;7.70;87.70
71117;SHT31;58775;46.992;9.518;2023-03-14T04:28:07;7.70;88.66
71117;SHT31;58775;46.992;9.518;2023-03-14T04:30:09;7.78;88.99
71117;SHT31;58775;46.992;9.518;2023-03-14T04:32:42;7.55;90.77
71117;SHT31;58775;46.992;9.518;2023-03-14T04:34:43;7.34;92.76
71117;SHT31;58775;46.992;9.518;2023-03-14T04:36:45;7.29;92.57
71117;SHT31;58775;46.992;9.518;2023-03-14T04:38:52;7.38;91.07
71117;SHT31;58775;46.992;9.518;2023-03-14T04:40:55;7.22;92.61
71117;SHT31;58775;46.992;9.518;2023-03-14T04:42:59;7.22;92.77
71117;SHT31;58775;46.992;9.518;2023-03-14T04:47:59;7.19;91.83
71117;SHT31;58775;46.992;9.518;2023-03-14T04:50:00;7.21;93.40
71117;SHT31;58775;46.992;9.518;2023-03-14T04:52:01;7.21;92.92
71117;SHT31;58775;46.992;9.518;2023-03-14T04:54:04;7.22;93.48
71117;SHT31;58775;46.992;9.518;2023-03-14T04:56:06;7.12;92.40
71117;SHT31;58775;46.992;9.518;2023-03-14T04:58:11;7.21;90.76
71117;SHT31;58775;46.992;9.518;2023-03-14T05:00:13;7.31;90.91
71117;SHT31;58775;46.992;9.518;2023-03-14T05:02:34;7.38;91.50
71117;SHT31;58775;46.992;9.518;2023-03-14T05:05:05;7.52;90.26
71117;SHT31;58775;46.992;9.518;2023-03-14T05:07:30;7.36;91.26
71117;SHT31;58775;46.992;9.518;2023-03-14T05:09:49;7.49;89.83
71117;SHT31;58775;46.992;9.518;2023-03-14T05:12:01;7.51;87.46
71117;SHT31;58775;46.992;9.518;2023-03-14T05:14:25;7.36;89.27
71117;SHT31;58775;46.992;9.518;2023-03-14T05:22:25;7.00;92.10
71117;SHT31;58775;46.992;9.518;2023-03-14T05:24:36;6.91;93.39
71117;SHT31;58775;46.992;9.518;2023-03-14T05:26:56;7.12;91.74
71117;SHT31;58775;46.992;9.518;2023-03-14T05:29:14;6.88;92.51
71117;SHT31;58775;46.992;9.518;2023-03-14T05:31:27;6.91;92.53
71117;SHT31;58775;46.992;9.518;2023-03-14T05:33:41;6.80;92.52
71117;SHT31;58775;46.992;9.518;2023-03-14T05:36:01;6.87;92.23
71117;SHT31;58775;46.992;9.518;2023-03-14T05:38:34;7.01;91.56
71117;SHT31;58775;46.992;9.518;2023-03-14T05:40:59;7.03;91.43
71117;SHT31;58775;46.992;9.518;2023-03-14T05:43:24;6.93;92.87
71117;SHT31;58775;46.992;9.518;2023-03-14T05:45:35;6.94;93.53
71117;SHT31;58775;46.992;9.518;2023-03-14T05:47:49;7.07;92.44
71117;SHT31;58775;46.992;9.518;2023-03-14T05:50:28;7.21;92.00
71117;SHT31;58775;46.992;9.518;2023-03-14T05:52:50;7.25;91.82
71117;SHT31;58775;46.992;9.518;2023-03-14T05:55:11;7.15;92.41
71117;SHT31;58775;46.992;9.518;2023-03-14T05:57:41;7.25;91.97
71117;SHT31;58775;46.992;9.518;2023-03-14T05:59:57;7.28;91.87
71117;SHT31;58775;46.992;9.518;2023-03-14T06:02:28;7.10;93.26
71117;SHT31;58775;46.992;9.518;2023-03-14T06:04:38;7.14;92.43
71117;SHT31;58775;46.992;9.518;2023-03-14T06:06:39;7.21;92.45
71117;SHT31;58775;46.992;9.518;2023-03-14T06:08:41;7.17;92.18
71117;SHT31;58775;46.992;9.518;2023-03-14T06:10:44;7.17;92.97
71117;SHT31;58775;46.992;9.518;2023-03-14T06:12:46;7.15;93.12
71117;SHT31;58775;46.992;9.518;2023-03-14T06:14:47;7.17;91.61
71117;SHT31;58775;46.992;9.518;2023-03-14T06:16:48;7.21;91.45
71117;SHT31;58775;46.992;9.518;2023-03-14T06:19:11;7.28;91.83
71117;SHT31;58775;46.992;9.518;2023-03-14T06:21:12;7.24;91.79
71117;SHT31;58775;46.992;9.518;2023-03-14T06:23:14;7.31;91.78
71117;SHT31;58775;46.992;9.518;2023-03-14T06:25:15;7.28;91.52
71117;SHT31;58775;46.992;9.518;2023-03-14T06:27:20;7.25;91.23
71117;SHT31;58775;46.992;9.518;2023-03-14T06:29:21;7.28;91.08
71117;SHT31;58775;46.992;9.518;2023-03-14T06:31:23;7.08;90.82
71117;SHT31;58775;46.992;9.518;2023-03-14T06:33:30;7.12;90.38
71117;SHT31;58775;46.992;9.518;2023-03-14T06:35:33;7.04;92.44
71117;SHT31;58775;46.992;9.518;2023-03-14T06:37:35;7.05;92.85
71117;SHT31;58775;46.992;9.518;2023-03-14T06:39:36;7.00;92.57
71117;SHT31;58775;46.992;9.518;2023-03-14T06:41:45;7.05;91.14
71117;SHT31;58775;46.992;9.518;2023-03-14T06:43:47;7.18;92.04
71117;SHT31;58775;46.992;9.518;2023-03-14T06:45:49;7.07;91.48
71117;SHT31;58775;46.992;9.518;2023-03-14T06:47:50;7.11;91.76
71117;SHT31;58775;46.992;9.518;2023-03-14T06:49:56;7.24;90.02
71117;SHT31;58775;46.992;9.518;2023-03-14T06:51:58;7.17;91.56
71117;SHT31;58775;46.992;9.518;2023-03-14T06:54:00;7.31;92.30
71117;SHT31;58775;46.992;9.518;2023-03-14T06:56:03;7.24;89.36
71117;SHT31;58775;46.992;9.518;2023-03-14T06:58:06;7.18;90.31
71117;SHT31;58775;46.992;9.518;2023-03-14T07:00:14;7.31;88.32
71117;SHT31;58775;46.992;9.518;2023-03-14T07:02:15;7.29;89.23
71117;SHT31;58775;46.992;9.518;2023-03-14T07:04:18;7.28;91.72
71117;SHT31;58775;46.992;9.518;2023-03-14T07:06:22;7.41;90.70
71117;SHT31;58775;46.992;9.518;2023-03-14T07:08:23;7.49;88.68
71117;SHT31;58775;46.992;9.518;2023-03-14T07:10:25;7.56;88.06
71117;SHT31;58775;46.992;9.518;2023-03-14T07:12:26;7.49;90.80
71117;SHT31;58775;46.992;9.518;2023-03-14T07:14:50;7.44;92.34
71117;SHT31;58775;46.992;9.518;2023-03-14T07:16:52;7.47;92.84
71117;SHT31;58775;46.992;9.518;2023-03-14T07:18:54;7.27;93.78
71117;SHT31;58775;46.992;9.518;2023-03-14T07:20:55;7.52;90.98
71117;SHT31;58775;46.992;9.518;2023-03-14T07:22:56;7.61;90.75
71117;SHT31;58775;46.992;9.518;2023-03-14T07:25:13;7.78;89.99
71117;SHT31;58775;46.992;9.518;2023-03-14T07:27:14;7.79;90.14
71117;SHT31;58775;46.992;9.518;2023-03-14T07:29:15;7.73;90.98
71117;SHT31;58775;46.992;9.518;2023-03-14T07:31:17;7.83;90.52
71117;SHT31;58775;46.992;9.518;2023-03-14T07:33:18;7.66;91.48
71117;SHT31;58775;46.992;9.518;2023-03-14T07:35:20;7.54;92.22
71117;SHT31;58775;46.992;9.518;2023-03-14T07:37:21;7.58;93.65
71117;SHT31;58775;46.992;9.518;2023-03-14T07:39:23;7.51;94.29
71117;SHT31;58775;46.992;9.518;2023-03-14T07:41:33;7.61;93.38
71117;SHT31;58775;46.992;9.518;2023-03-14T07:43:54;7.45;94.76
71117;SHT31;58775;46.992;9.518;2023-03-14T07:45:56;7.49;95.46
71117;SHT31;58775;46.992;9.518;2023-03-14T07:47:57;7.73;92.59
71117;SHT31;58775;46.992;9.518;2023-03-14T07:49:58;7.61;93.09
71117;SHT31;58775;46.992;9.518;2023-03-14T07:51:59;7.78;92.77
71117;SHT31;58775;46.992;9.518;2023-03-14T07:54:01;7.82;93.10
71117;SHT31;58775;46.992;9.518;2023-03-14T07:56:02;7.90;92.77
71117;SHT31;58775;46.992;9.518;2023-03-14T07:58:06;8.03;90.72
71117;SHT31;58775;46.992;9.518;2023-03-14T08:00:08;8.07;91.08
71117;SHT31;58775;46.992;9.518;2023-03-14T08:02:15;8.07;92.44
71117;SHT31;58775;46.992;9.518;2023-03-14T08:04:16;8.06;93.02
71117;SHT31;58775;46.992;9.518;2023-03-14T08:06:17;8.50;92.93
71117;SHT31;58775;46.992;9.518;2023-03-14T08:08:19;8.61;91.15
71117;SHT31;58775;46.992;9.518;2023-03-14T08:10:20;8.89;90.56
71117;SHT31;58775;46.992;9.518;2023-03-14T08:12:24;9.42;86.37
71117;SHT31;58775;46.992;9.518;2023-03-14T08:14:25;9.50;87.78
71117;SHT31;58775;46.992;9.518;2023-03-14T08:16:26;9.63;88.90
71117;SHT31;58775;46.992;9.518;2023-03-14T08:18:28;10.04;85.42
71117;SHT31;58775;46.992;9.518;2023-03-14T08:20:29;10.38;85.01
71117;SHT31;58775;46.992;9.518;2023-03-14T08:22:30;11.13;80.34
71117;SHT31;58775;46.992;9.518;2023-03-14T08:24:31;11.77;80.32
71117;SHT31;58775;46.992;9.518;2023-03-14T08:26:32;12.49;75.64
71117;SHT31;58775;46.992;9.518;2023-03-14T08:28:33;13.11;74.01
71117;SHT31;58775;46.992;9.518;2023-03-14T08:30:35;13.80;70.76
71117;SHT31;58775;46.992;9.518;2023-03-14T08:32:36;14.30;69.50
71117;SHT31;58775;46.992;9.518;2023-03-14T08:34:38;14.76;67.59
71117;SHT31;58775;46.992;9.518;2023-03-14T08:36:39;14.92;66.49
71117;SHT31;58775;46.992;9.518;2023-03-14T08:38:40;14.25;67.00
71117;SHT31;58775;46.992;9.518;2023-03-14T08:40:43;13.86;68.29
71117;SHT31;58775;46.992;9.518;2023-03-14T08:42:44;13.70;69.81
71117;SHT31;58775;46.992;9.518;2023-03-14T08:44:46;13.18;68.37
71117;SHT31;58775;46.992;9.518;2023-03-14T08:46:47;13.10;68.00
71117;SHT31;58775;46.992;9.518;2023-03-14T08:48:48;12.94;70.27
71117;SHT31;58775;46.992;9.518;2023-03-14T08:50:49;13.00;68.87
71117;SHT31;58775;46.992;9.518;2023-03-14T08:52:50;13.18;69.74
71117;SHT31;58775;46.992;9.518;2023-03-14T08:54:51;13.31;69.59
71117;SHT31;58775;46.992;9.518;2023-03-14T08:56:52;13.25;71.90
71117;SHT31;58775;46.992;9.518;2023-03-14T08:58:53;12.91;72.48
71117;SHT31;58775;46.992;9.518;2023-03-14T09:00:55;12.74;72.36
71117;SHT31;58775;46.992;9.518;2023-03-14T09:02:56;12.79;72.78
71117;SHT31;58775;46.992;9.518;2023-03-14T09:04:57;12.57;73.33
71117;SHT31;58775;46.992;9.518;2023-03-14T09:06:58;12.06;72.65
71117;SHT31;58775;46.992;9.518;2023-03-14T09:09:00;12.05;74.73
71117;SHT31;58775;46.992;9.518;2023-03-14T09:11:02;11.96;73.69
71117;SHT31;58775;46.992;9.518;2023-03-14T09:13:03;11.93;73.55
71117;SHT31;58775;46.992;9.518;2023-03-14T09:15:05;11.68;74.39
71117;SHT31;58775;46.992;9.518;2023-03-14T09:17:06;11.42;75.81
71117;SHT31;58775;46.992;9.518;2023-03-14T09:19:08;11.50;75.50
71117;SHT31;58775;46.992;9.518;2023-03-14T09:21:09;11.69;75.23
71117;SHT31;58775;46.992;9.518;2023-03-14T09:23:10;11.89;74.97
71117;SHT31;58775;46.992;9.518;2023-03-14T09:25:11;11.95;73.44
71117;SHT31;58775;46.992;9.518;2023-03-14T09:27:12;12.12;73.31
71117;SHT31;58775;46.992;9.518;2023-03-14T09:29:13;12.22;72.55
71117;SHT31;58775;46.992;9.518;2023-03-14T09:31:14;12.43;73.76
71117;SHT31;58775;46.992;9.518;2023-03-14T09:33:16;12.44;73.89
71117;SHT31;58775;46.992;9.518;2023-03-14T09:35:17;12.54;72.45
71117;SHT31;58775;46.992;9.518;2023-03-14T09:37:18;12.70;72.57
71117;SHT31;58775;46.992;9.518;2023-03-14T09:39:20;12.88;71.54
71117;SHT31;58775;46.992;9.518;2023-03-14T09:41:25;12.84;71.22
71117;SHT31;58775;46.992;9.518;2023-03-14T09:43:31;12.92;70.63
71117;SHT31;58775;46.992;9.518;2023-03-14T09:45:43;12.85;72.87
71117;SHT31;58775;46.992;9.518;2023-03-14T09:47:46;12.97;72.04
71117;SHT31;58775;46.992;9.518;2023-03-14T09:49:48;13.19;71.82
71117;SHT31;58775;46.992;9.518;2023-03-14T09:51:53;13.52;71.78
71117;SHT31;58775;46.992;9.518;2023-03-14T09:53:55;13.77;71.52
71117;SHT31;58775;46.992;9.518;2023-03-14T09:55:57;14.13;69.29
71117;SHT31;58775;46.992;9.518;2023-03-14T09:58:02;14.21;69.50
71117;SHT31;58775;46.992;9.518;2023-03-14T10:00:12;13.72;73.49
71117;SHT31;58775;46.992;9.518;2023-03-14T10:02:23;13.45;73.56
71117;SHT31;58775;46.992;9.518;2023-03-14T10:04:25;13.76;71.71
71117;SHT31;58775;46.992;9.518;2023-03-14T10:06:29;13.80;71.54
71117;SHT31;58775;46.992;9.518;2023-03-14T10:08:30;13.28;73.16
71117;SHT31;58775;46.992;9.518;2023-03-14T10:10:32;13.66;70.45
71117;SHT31;58775;46.992;9.518;2023-03-14T10:12:36;13.69;73.86
71117;SHT31;58775;46.992;9.518;2023-03-14T10:14:45;13.69;72.20
71117;SHT31;58775;46.992;9.518;2023-03-14T10:16:47;14.44;70.32
71117;SHT31;58775;46.992;9.518;2023-03-14T10:18:48;15.26;69.09
71117;SHT31;58775;46.992;9.518;2023-03-14T10:20:52;15.30;67.07
71117;SHT31;58775;46.992;9.518;2023-03-14T10:23:07;15.67;66.90
71117;SHT31;58775;46.992;9.518;2023-03-14T10:25:31;16.08;64.14
71117;SHT31;58775;46.992;9.518;2023-03-14T10:27:34;16.22;62.97
71117;SHT31;58775;46.992;9.518;2023-03-14T10:29:54;16.09;63.74
71117;SHT31;58775;46.992;9.518;2023-03-14T10:32:04;15.77;63.90
71117;SHT31;58775;46.992;9.518;2023-03-14T10:34:16;15.96;62.69
71117;SHT31;58775;46.992;9.518;2023-03-14T10:36:21;15.68;63.23
71117;SHT31;58775;46.992;9.518;2023-03-14T10:38:33;15.88;62.89
71117;SHT31;58775;46.992;9.518;2023-03-14T10:40:38;15.83;64.23
71117;SHT31;58775;46.992;9.518;2023-03-14T10:42:42;15.94;64.13
71117;SHT31;58775;46.992;9.518;2023-03-14T10:44:45;15.57;65.41
71117;SHT31;58775;46.992;9.518;2023-03-14T10:47:00;15.40;63.29
71117;SHT31;58775;46.992;9.518;2023-03-14T10:49:05;15.33;63.68
71117;SHT31;58775;46.992;9.518;2023-03-14T10:53:18;14.76;66.63
71117;SHT31;58775;46.992;9.518;2023-03-14T10:55:20;13.93;69.87
71117;SHT31;58775;46.992;9.518;2023-03-14T10:57:21;13.21;72.79
71117;SHT31;58775;46.992;9.518;2023-03-14T10:59:22;13.26;72.55
71117;SHT31;58775;46.992;9.518;2023-03-14T11:01:36;13.19;73.95
71117;SHT31;58775;46.992;9.518;2023-03-14T11:03:45;13.41;70.84
71117;SHT31;58775;46.992;9.518;2023-03-14T11:11:19;12.49;76.63
71117;SHT31;58775;46.992;9.518;2023-03-14T11:13:30;12.29;77.31
71117;SHT31;58775;46.992;9.518;2023-03-14T11:23:13;11.88;77.90
71117;SHT31;58775;46.992;9.518;2023-03-14T11:25:25;12.03;78.07
71117;SHT31;58775;46.992;9.518;2023-03-14T11:28:04;11.96;81.05
71117;SHT31;58775;46.992;9.518;2023-03-14T11:30:25;11.68;83.88
71117;SHT31;58775;46.992;9.518;2023-03-14T11:34:48;12.05;81.73
71117;SHT31;58775;46.992;9.518;2023-03-14T11:36:59;12.18;81.10
71117;SHT31;58775;46.992;9.518;2023-03-14T11:39:02;11.77;82.88
71117;SHT31;58775;46.992;9.518;2023-03-14T11:43:38;12.00;80.46
71117;SHT31;58775;46.992;9.518;2023-03-14T11:45:45;12.18;79.33
71117;SHT31;58775;46.992;9.518;2023-03-14T11:47:57;12.13;79.12
71117;SHT31;58775;46.992;9.518;2023-03-14T11:50:19;12.16;78.61
71117;SHT31;58775;46.992;9.518;2023-03-14T11:53:04;12.13;79.30
71117;SHT31;58775;46.992;9.518;2023-03-14T11:55:17;11.69;84.23
71117;SHT31;58775;46.992;9.518;2023-03-14T11:57:21;11.54;84.62
71117;SHT31;58775;46.992;9.518;2023-03-14T11:59:34;11.34;83.81
71117;SHT31;58775;46.992;9.518;2023-03-14T12:01:54;11.26;84.63
71117;SHT31;58775;46.992;9.518;2023-03-14T12:04:04;11.31;85.07
71117;SHT31;58775;46.992;9.518;2023-03-14T12:08:55;11.64;82.47
71117;SHT31;58775;46.992;9.518;2023-03-14T12:11:31;11.68;82.74
71117;SHT31;58775;46.992;9.518;2023-03-14T12:13:37;11.86;82.35
71117;SHT31;58775;46.992;9.518;2023-03-14T12:15:41;11.55;82.11
71117;SHT31;58775;46.992;9.518;2023-03-14T12:17:44;11.69;81.28
71117;SHT31;58775;46.992;9.518;2023-03-14T12:19:58;11.71;82.07
71117;SHT31;58775;46.992;9.518;2023-03-14T12:22:26;11.65;81.91
71117;SHT31;58775;46.992;9.518;2023-03-14T12:24:31;11.21;84.65
71117;SHT31;58775;46.992;9.518;2023-03-14T12:26:53;11.44;84.20
71117;SHT31;58775;46.992;9.518;2023-03-14T12:33:32;10.87;81.17
71117;SHT31;58775;46.992;9.518;2023-03-14T12:35:39;10.56;80.85
71117;SHT31;58775;46.992;9.518;2023-03-14T12:37:45;10.49;79.67
71117;SHT31;58775;46.992;9.518;2023-03-14T12:40:06;10.53;79.87
71117;SHT31;58775;46.992;9.518;2023-03-14T12:46:34;9.99;82.74
71117;SHT31;58775;46.992;9.518;2023-03-14T12:48:37;9.53;85.58
71117;SHT31;58775;46.992;9.518;2023-03-14T12:50:43;9.33;85.19
71117;SHT31;58775;46.992;9.518;2023-03-14T12:56:02;9.69;85.04
71117;SHT31;58775;46.992;9.518;2023-03-14T12:58:15;9.53;84.06
71117;SHT31;58775;46.992;9.518;2023-03-14T13:00:23;9.69;82.29
71117;SHT31;58775;46.992;9.518;2023-03-14T13:02:40;9.37;82.37
71117;SHT31;58775;46.992;9.518;2023-03-14T13:04:46;9.19;82.53
71117;SHT31;58775;46.992;9.518;2023-03-14T13:06:57;9.12;83.37
71117;SHT31;58775;46.992;9.518;2023-03-14T13:11:40;8.92;84.25
71117;SHT31;58775;46.992;9.518;2023-03-14T13:13:47;8.92;85.23
71117;SHT31;58775;46.992;9.518;2023-03-14T13:15:54;8.68;84.80
71117;SHT31;58775;46.992;9.518;2023-03-14T13:20:51;8.60;83.57
71117;SHT31;58775;46.992;9.518;2023-03-14T13:22:53;8.58;84.75
71117;SHT31;58775;46.992;9.518;2023-03-14T13:25:00;8.50;84.26
71117;SHT31;58775;46.992;9.518;2023-03-14T13:27:01;8.68;85.24
71117;SHT31;58775;46.992;9.518;2023-03-14T13:29:25;8.54;85.06
71117;SHT31;58775;46.992;9.518;2023-03-14T13:31:26;8.61;84.20
71117;SHT31;58775;46.992;9.518;2023-03-14T13:33:28;8.64;85.25
71117;SHT31;58775;46.992;9.518;2023-03-14T13:35:42;8.71;83.07
71117;SHT31;58775;46.992;9.518;2023-03-14T13:37:43;8.34;82.75
71117;SHT31;58775;46.992;9.518;2023-03-14T13:39:49;8.67;83.38
71117;SHT31;58775;46.992;9.518;2023-03-14T13:41:53;8.65;80.34
71117;SHT31;58775;46.992;9.518;2023-03-14T13:46:36;8.48;79.62
71117;SHT31;58775;46.992;9.518;2023-03-14T13:48:46;8.61;80.01
71117;SHT31;58775;46.992;9.518;2023-03-14T13:53:01;8.68;75.62
71117;SHT31;58775;46.992;9.518;2023-03-14T13:55:04;8.58;76.80
71117;SHT31;58775;46.992;9.518;2023-03-14T13:57:06;8.76;77.26
71117;SHT31;58775;46.992;9.518;2023-03-14T13:59:29;8.55;76.31
71117;SHT31;58775;46.992;9.518;2023-03-14T14:01:33;8.47;76.82
71117;SHT31;58775;46.992;9.518;2023-03-14T14:03:39;8.27;78.88
71117;SHT31;58775;46.992;9.518;2023-03-14T14:05:44;8.30;77.63
71117;SHT31;58775;46.992;9.518;2023-03-14T14:07:46;8.38;77.10
71117;SHT31;58775;46.992;9.518;2023-03-14T14:09:50;8.57;74.90
71117;SHT31;58775;46.992;9.518;2023-03-14T14:11:55;8.65;74.50
71117;SHT31;58775;46.992;9.518;2023-03-14T14:13:57;8.69;75.57
71117;SHT31;58775;46.992;9.518;2023-03-14T14:16:00;8.81;75.26
71117;SHT31;58775;46.992;9.518;2023-03-14T14:18:05;8.72;72.53